Terminal Aerodrome Forecast
Issued by NWS

Home | Current Version | Previous Version | Graphics & Text | Print | Product List | Glossary On
Versions: 1 2 3 4 5 6 7 8 9 10 11 12 13 14 15 16 17
000
FTUS42 KMHX 210407 AAA
TAFOAJ
TAF AMD
KOAJ 210407Z 2104/2124 08007KT P6SM OVC015
     FM211000 05005KT P6SM BKN025
     FM211400 13010KT P6SM VCTS SCT025 BKN050CB
     FM211900 32012KT 5SM SHRA VCTS BKN025CB
      AMD LTD TO CLD VIS AND WIND=

USA.gov is the U.S. government's official web portal to all federal, state and local government web resources and services.